Spring Valley, Minnesota
Current Conditions -  °F | °C
As of 5:15 AM on Thursday 23 Oct 2014 (Local Time) from KFKA Reporting Station
Light Rain Light Rain  
Wind Chill: 41°   Ceiling: 5500
Heat Index: 46°   Visibility: 10mi
Dew Point: 44°   Wind: 12mph
Humidity: 91%   Direction: 190°S
Pressure: 30.06"   Gusts: NA
Location:  43.69°N, 92.39°W
Report Text: KFKA 231015Z AUTO 19010KT 10SM -RA OVC055 08/07 A3006 RMK AO2 T00790065
Loading
Personal Weather Stations






























Interactive Weather Map
Tropical Storm Tracking
New forecast layout! Learn more

10-Day Weather Forecast

Advertisements
Track Severe Weather on mobile